createdAt,value
2022-10-31T00:01:51.432Z,16.93
2022-10-31T00:05:23.365Z,17.90
2022-10-31T00:08:57.383Z,17.85
2022-10-31T00:12:29.372Z,18.27
2022-10-31T00:16:01.445Z,17.27
2022-10-31T00:19:33.285Z,17.77
2022-10-31T00:23:06.315Z,16.45
2022-10-31T00:26:38.180Z,16.67
2022-10-31T00:30:10.359Z,20.00
2022-10-31T00:33:42.708Z,21.13
2022-10-31T00:37:14.372Z,15.65
2022-10-31T00:40:48.719Z,12.20
2022-10-31T00:44:20.473Z,11.53
2022-10-31T00:47:52.454Z,12.75
2022-10-31T00:51:24.157Z,18.00
2022-10-31T00:54:56.082Z,16.63
2022-10-31T00:58:27.967Z,16.73
2022-10-31T01:01:59.917Z,15.50
2022-10-31T01:05:31.729Z,14.55
2022-10-31T01:09:03.701Z,16.53
2022-10-31T01:12:43.929Z,18.47
2022-10-31T01:16:18.555Z,20.05
2022-10-31T01:19:50.826Z,15.05
2022-10-31T01:23:22.788Z,14.57
2022-10-31T01:26:54.458Z,16.27
2022-10-31T01:30:26.272Z,20.50
2022-10-31T01:33:58.250Z,21.88
2022-10-31T01:37:31.572Z,16.57
2022-10-31T01:41:03.311Z,20.70
2022-10-31T01:44:35.121Z,23.40
2022-10-31T01:48:14.913Z,21.42
2022-10-31T01:51:52.718Z,18.53
2022-10-31T01:55:45.038Z,18.52
2022-10-31T01:59:20.581Z,20.95
2022-10-31T02:02:52.828Z,20.48
2022-10-31T02:06:38.492Z,20.07
2022-10-31T02:10:10.558Z,17.90
2022-10-31T02:13:42.587Z,17.52
2022-10-31T02:17:14.859Z,17.13
2022-10-31T02:21:01.261Z,16.57
2022-10-31T02:24:45.254Z,18.13
2022-10-31T02:28:20.149Z,18.00
2022-10-31T02:32:01.556Z,15.83
2022-10-31T02:35:46.401Z,16.57
2022-10-31T02:39:27.039Z,17.42
2022-10-31T02:43:17.212Z,17.52
2022-10-31T02:47:02.625Z,18.50
2022-10-31T02:50:38.681Z,16.33
2022-10-31T02:54:22.210Z,16.17
2022-10-31T02:58:02.077Z,17.38
2022-10-31T03:02:06.645Z,17.43
2022-10-31T03:05:52.320Z,15.90
2022-10-31T03:09:45.106Z,14.77
2022-10-31T03:13:28.027Z,14.27
2022-10-31T03:17:05.547Z,15.48
2022-10-31T03:20:48.864Z,17.27
2022-10-31T03:24:23.502Z,22.27
2022-10-31T03:27:57.086Z,17.83
2022-10-31T03:31:36.244Z,19.40
2022-10-31T03:35:10.871Z,18.55
2022-10-31T03:38:44.147Z,19.53
2022-10-31T03:42:21.591Z,18.67
2022-10-31T03:45:53.654Z,20.98
2022-10-31T03:49:26.129Z,22.30
2022-10-31T03:53:26.261Z,21.40
2022-10-31T03:57:04.576Z,20.00
2022-10-31T04:00:41.996Z,20.13
2022-10-31T04:04:15.290Z,20.10
2022-10-31T04:07:50.254Z,20.63
2022-10-31T04:11:25.793Z,20.60
2022-10-31T04:14:59.113Z,19.98
2022-10-31T04:18:31.181Z,18.00
2022-10-31T04:22:03.464Z,16.13
2022-10-31T04:25:35.370Z,18.25
2022-10-31T04:29:07.037Z,16.63
2022-10-31T04:32:38.898Z,18.70
2022-10-31T04:36:10.930Z,18.85
2022-10-31T04:39:42.801Z,17.10
2022-10-31T04:43:14.515Z,19.23
2022-10-31T04:46:46.493Z,18.63
2022-10-31T04:50:18.444Z,18.00
2022-10-31T04:53:50.334Z,18.63
2022-10-31T04:57:22.174Z,18.67
2022-10-31T05:00:55.244Z,16.57
2022-10-31T05:04:26.961Z,19.10
2022-10-31T05:07:58.907Z,18.67
2022-10-31T05:11:30.609Z,19.50
2022-10-31T05:15:02.715Z,17.70
2022-10-31T05:18:34.398Z,18.15
2022-10-31T05:22:06.228Z,20.63
2022-10-31T05:25:37.928Z,17.70
2022-10-31T05:29:09.756Z,17.20
2022-10-31T05:32:44.294Z,18.85
2022-10-31T05:36:16.119Z,17.38
2022-10-31T05:39:48.018Z,17.30
2022-10-31T05:43:19.977Z,18.80
2022-10-31T05:46:51.677Z,20.48
2022-10-31T05:50:24.123Z,19.92
2022-10-31T05:53:55.765Z,20.07
2022-10-31T05:57:27.653Z,20.03
2022-10-31T06:00:59.376Z,19.45
2022-10-31T06:04:31.213Z,20.33
2022-10-31T06:08:03.442Z,19.60
2022-10-31T06:11:35.742Z,21.23
2022-10-31T06:15:09.315Z,18.83
2022-10-31T06:18:41.160Z,20.08
2022-10-31T06:22:13.418Z,19.93
2022-10-31T06:25:51.014Z,19.65
2022-10-31T06:29:22.764Z,17.25
2022-10-31T06:32:54.689Z,18.27
2022-10-31T06:39:58.206Z,14.75
2022-10-31T06:43:30.375Z,15.52
2022-10-31T06:47:02.300Z,14.60
2022-10-31T06:50:34.016Z,15.23
2022-10-31T06:54:05.968Z,14.15
2022-10-31T06:57:37.657Z,15.05
2022-10-31T07:01:09.698Z,15.00
2022-10-31T07:04:41.497Z,13.47
2022-10-31T07:08:14.843Z,13.27
2022-10-31T07:11:46.606Z,13.02
2022-10-31T07:15:18.430Z,14.87
2022-10-31T07:18:51.118Z,15.33
2022-10-31T07:22:22.956Z,15.45
2022-10-31T07:25:58.728Z,17.45
2022-10-31T07:29:30.556Z,15.87
2022-10-31T07:33:02.420Z,18.30
2022-10-31T07:36:34.252Z,18.67
2022-10-31T07:40:07.689Z,20.38
2022-10-31T07:43:39.589Z,18.27
2022-10-31T07:47:11.711Z,17.37
2022-10-31T07:50:43.646Z,16.42
2022-10-31T07:54:15.375Z,18.10
2022-10-31T07:57:47.216Z,18.83
2022-10-31T08:01:18.924Z,17.47
2022-10-31T08:04:50.822Z,18.48
2022-10-31T08:08:22.592Z,17.88
2022-10-31T08:11:54.737Z,18.00
2022-10-31T08:15:27.243Z,19.07
2022-10-31T08:18:59.260Z,17.27
2022-10-31T08:22:30.986Z,16.63
2022-10-31T08:26:03.080Z,16.90
2022-10-31T08:29:35.017Z,17.00
2022-10-31T08:33:11.404Z,16.50
2022-10-31T08:36:45.895Z,16.40
2022-10-31T08:40:17.762Z,15.40
2022-10-31T08:43:49.427Z,15.03
2022-10-31T08:47:23.171Z,14.98
2022-10-31T08:50:58.860Z,15.30
2022-10-31T08:54:30.816Z,16.17
2022-10-31T08:58:04.301Z,16.23
2022-10-31T09:01:36.507Z,15.07
2022-10-31T09:05:08.766Z,16.90
2022-10-31T09:08:40.644Z,15.90
2022-10-31T09:12:12.331Z,17.60
2022-10-31T09:15:49.171Z,19.17
2022-10-31T09:19:21.466Z,20.25
2022-10-31T09:22:58.157Z,23.87
2022-10-31T09:26:29.882Z,22.10
2022-10-31T09:30:02.133Z,24.00
2022-10-31T09:33:33.823Z,24.13
2022-10-31T09:37:05.708Z,23.17
2022-10-31T09:40:42.384Z,20.33
2022-10-31T09:44:26.239Z,16.80
2022-10-31T09:48:10.653Z,16.50
2022-10-31T09:51:50.473Z,15.03
2022-10-31T09:55:36.405Z,14.43
2022-10-31T09:59:17.245Z,13.88
2022-10-31T10:03:16.219Z,14.57
2022-10-31T10:06:52.274Z,15.73
2022-10-31T10:10:53.015Z,14.85
2022-10-31T10:14:37.856Z,13.93
2022-10-31T10:18:34.265Z,14.80
2022-10-31T10:22:13.889Z,14.30
2022-10-31T10:25:51.015Z,13.40
2022-10-31T10:29:41.986Z,13.82
2022-10-31T10:33:45.932Z,13.05
2022-10-31T10:37:20.717Z,13.03
2022-10-31T10:40:54.998Z,12.30
2022-10-31T10:44:45.228Z,12.60
2022-10-31T10:48:28.237Z,11.43
2022-10-31T10:56:18.156Z,11.10
2022-10-31T10:59:50.298Z,12.13
2022-10-31T11:03:22.119Z,12.27
2022-10-31T11:07:11.409Z,11.63
2022-10-31T11:10:43.079Z,12.63
2022-10-31T11:14:16.794Z,12.50
2022-10-31T11:17:52.257Z,11.15
2022-10-31T11:21:30.949Z,12.50
2022-10-31T11:25:22.821Z,12.20
2022-10-31T11:28:59.601Z,12.15
2022-10-31T11:32:31.310Z,11.10
2022-10-31T11:36:25.556Z,12.43
2022-10-31T11:40:00.591Z,12.13
2022-10-31T11:43:32.502Z,12.40
2022-10-31T11:47:06.481Z,11.73
2022-10-31T11:50:41.897Z,11.32
2022-10-31T11:54:22.031Z,11.73
2022-10-31T11:57:55.621Z,12.53
2022-10-31T12:01:30.817Z,13.00
2022-10-31T12:05:21.233Z,11.68
2022-10-31T12:08:53.982Z,11.57
2022-10-31T12:12:47.610Z,11.83
2022-10-31T12:16:35.259Z,13.55
2022-10-31T12:20:13.163Z,13.05
2022-10-31T12:23:56.789Z,14.38
2022-10-31T12:27:48.858Z,13.70
2022-10-31T12:31:32.719Z,13.77
2022-10-31T12:35:43.444Z,15.85
2022-10-31T12:39:24.750Z,14.65
2022-10-31T12:43:05.620Z,15.20
2022-10-31T12:47:03.226Z,14.35
2022-10-31T12:51:09.038Z,14.15
2022-10-31T12:54:50.512Z,14.25
2022-10-31T12:58:34.535Z,14.10
2022-10-31T13:02:14.716Z,13.52
2022-10-31T13:05:52.885Z,13.43
2022-10-31T13:09:57.786Z,12.65
2022-10-31T13:13:41.400Z,13.13
2022-10-31T13:17:33.830Z,13.63
2022-10-31T13:21:12.727Z,11.52
2022-10-31T13:25:02.929Z,11.38
2022-10-31T13:28:46.631Z,11.63
2022-10-31T13:32:18.431Z,10.53
2022-10-31T13:36:07.367Z,11.63
2022-10-31T13:39:41.909Z,12.65
2022-10-31T13:43:46.134Z,16.95
2022-10-31T13:47:35.960Z,16.00
2022-10-31T13:51:10.925Z,16.85
2022-10-31T13:54:48.253Z,16.25
2022-10-31T13:58:31.455Z,16.25
2022-10-31T14:02:16.524Z,16.30
2022-10-31T14:05:54.502Z,15.53
2022-10-31T14:09:30.580Z,16.30
2022-10-31T14:13:06.772Z,16.45
2022-10-31T14:16:41.421Z,17.75
2022-10-31T14:20:13.242Z,18.00
2022-10-31T14:23:47.510Z,18.98
2022-10-31T14:27:22.242Z,20.70
2022-10-31T14:30:58.771Z,19.13
2022-10-31T14:34:35.890Z,20.17
2022-10-31T14:38:20.310Z,19.07
2022-10-31T14:41:59.707Z,24.77
2022-10-31T14:46:04.486Z,22.42
2022-10-31T14:49:59.220Z,22.33
2022-10-31T14:53:37.055Z,21.43
2022-10-31T14:57:24.036Z,22.00
2022-10-31T15:00:57.990Z,22.10
2022-10-31T15:04:33.549Z,22.17
2022-10-31T15:08:06.596Z,20.83
2022-10-31T15:11:39.243Z,19.30
2022-10-31T15:15:25.754Z,19.95
2022-10-31T15:19:11.088Z,21.73
2022-10-31T15:22:42.841Z,22.10
2022-10-31T15:26:21.863Z,20.13
2022-10-31T15:29:55.753Z,17.85
2022-10-31T15:33:38.254Z,17.90
2022-10-31T15:37:16.930Z,18.00
2022-10-31T15:41:02.749Z,18.48
2022-10-31T15:44:38.176Z,18.92
2022-10-31T15:48:25.952Z,21.98
2022-10-31T15:52:00.835Z,20.93
2022-10-31T15:55:39.418Z,22.95
2022-10-31T15:59:23.033Z,25.15
2022-10-31T16:03:09.137Z,24.73
2022-10-31T16:06:40.879Z,24.20
2022-10-31T16:10:26.649Z,27.10
2022-10-31T16:14:08.630Z,30.05
2022-10-31T16:17:43.935Z,30.47
2022-10-31T16:21:16.170Z,33.20
2022-10-31T16:24:53.198Z,36.03
2022-10-31T16:28:31.033Z,40.78
2022-10-31T16:32:05.357Z,37.80
2022-10-31T16:35:39.304Z,42.23
2022-10-31T16:39:11.208Z,37.17
2022-10-31T16:42:44.760Z,39.78
2022-10-31T16:46:22.784Z,41.20
2022-10-31T16:49:54.432Z,39.70
2022-10-31T16:53:26.285Z,39.45
2022-10-31T16:57:00.289Z,39.22
2022-10-31T17:00:32.143Z,36.87
2022-10-31T17:04:03.895Z,35.30
2022-10-31T17:07:35.692Z,36.47
2022-10-31T17:11:14.653Z,35.58
2022-10-31T17:14:50.793Z,37.10
2022-10-31T17:18:27.402Z,36.23
2022-10-31T17:21:59.787Z,32.45
2022-10-31T17:25:32.183Z,30.05
2022-10-31T17:29:04.035Z,27.17
2022-10-31T17:32:35.817Z,27.67
2022-10-31T17:36:07.907Z,26.52
2022-10-31T17:39:39.558Z,27.25
2022-10-31T17:43:12.233Z,26.40
2022-10-31T17:46:44.148Z,24.93
2022-10-31T17:50:18.100Z,25.55
2022-10-31T17:53:49.862Z,25.63
2022-10-31T17:57:21.854Z,24.33
2022-10-31T18:00:53.675Z,21.53
2022-10-31T18:04:26.169Z,25.25
2022-10-31T18:08:02.494Z,25.83
2022-10-31T18:11:35.828Z,23.53
2022-10-31T18:15:07.841Z,23.77
2022-10-31T18:18:40.307Z,21.98
2022-10-31T18:22:13.286Z,22.45
2022-10-31T18:25:45.168Z,20.53
2022-10-31T18:29:16.932Z,21.40
2022-10-31T18:32:52.584Z,20.55
2022-10-31T18:36:25.393Z,22.73
2022-10-31T18:39:57.260Z,22.00
2022-10-31T18:43:29.040Z,20.58
2022-10-31T18:47:01.135Z,20.92
2022-10-31T18:50:32.882Z,20.50
2022-10-31T18:54:04.852Z,25.63
2022-10-31T18:57:36.692Z,24.65
2022-10-31T19:01:10.336Z,25.75
2022-10-31T19:04:42.190Z,25.20
2022-10-31T19:08:14.122Z,21.83
2022-10-31T19:11:45.887Z,21.92
2022-10-31T19:15:17.720Z,23.20
2022-10-31T19:18:49.521Z,22.37
2022-10-31T19:22:21.449Z,21.05
2022-10-31T19:25:53.696Z,20.83
2022-10-31T19:29:25.539Z,21.30
2022-10-31T19:32:57.245Z,23.33
2022-10-31T19:36:29.649Z,21.73
2022-10-31T19:40:01.322Z,19.02
2022-10-31T19:43:33.506Z,19.60
2022-10-31T19:47:05.545Z,17.67
2022-10-31T19:50:37.428Z,17.98
2022-10-31T19:54:09.165Z,17.40
2022-10-31T19:58:00.935Z,17.33
2022-10-31T20:01:32.828Z,18.20
2022-10-31T20:05:05.085Z,18.83
2022-10-31T20:08:39.569Z,18.20
2022-10-31T20:12:11.835Z,16.23
2022-10-31T20:15:43.496Z,15.48
2022-10-31T20:19:15.412Z,15.20
2022-10-31T20:22:49.810Z,17.07
2022-10-31T20:26:24.099Z,15.40
2022-10-31T20:29:56.065Z,17.60
2022-10-31T20:33:27.946Z,16.00
2022-10-31T20:36:59.724Z,14.23
2022-10-31T20:40:32.387Z,15.65
2022-10-31T20:44:04.222Z,14.85
2022-10-31T20:47:36.117Z,14.35
2022-10-31T20:51:12.523Z,13.27
2022-10-31T20:54:44.376Z,13.23
2022-10-31T20:58:16.076Z,12.35
2022-10-31T21:01:47.996Z,11.73
2022-10-31T21:05:19.778Z,11.48
2022-10-31T21:08:52.484Z,11.60
2022-10-31T21:12:24.227Z,12.10
2022-10-31T21:16:01.031Z,11.63
2022-10-31T21:19:33.550Z,10.32
2022-10-31T21:23:05.405Z,11.15
2022-10-31T21:26:39.975Z,13.33
2022-10-31T21:30:11.933Z,11.87
2022-10-31T21:33:45.155Z,11.45
2022-10-31T21:37:17.051Z,11.57
2022-10-31T21:40:48.740Z,11.60
2022-10-31T21:44:20.838Z,12.30
2022-10-31T21:47:52.558Z,11.32
2022-10-31T21:51:27.102Z,11.63
2022-10-31T21:54:58.765Z,12.00
2022-10-31T21:58:34.689Z,11.30
2022-10-31T22:02:09.538Z,12.52
2022-10-31T22:05:41.417Z,12.52
2022-10-31T22:09:14.648Z,11.20
2022-10-31T22:12:46.491Z,12.80
2022-10-31T22:16:20.812Z,12.23
2022-10-31T22:19:54.378Z,12.77
2022-10-31T22:23:26.027Z,12.50
2022-10-31T22:26:57.860Z,13.07
2022-10-31T22:30:29.524Z,13.75
2022-10-31T22:34:01.593Z,12.87
2022-10-31T22:37:33.727Z,14.37
2022-10-31T22:41:10.891Z,13.85
2022-10-31T22:44:42.625Z,14.25
2022-10-31T22:48:14.682Z,15.40
2022-10-31T22:51:46.412Z,15.50
2022-10-31T22:55:18.640Z,15.10
2022-10-31T22:58:51.021Z,15.07
2022-10-31T23:02:23.021Z,14.70
2022-10-31T23:05:56.759Z,13.57
2022-10-31T23:09:28.687Z,15.07
2022-10-31T23:13:19.349Z,14.55
2022-10-31T23:16:53.845Z,15.30
2022-10-31T23:20:25.581Z,15.27
2022-10-31T23:23:57.915Z,16.05
2022-10-31T23:27:29.617Z,16.00
2022-10-31T23:31:01.503Z,16.53
2022-10-31T23:34:33.325Z,16.67
2022-10-31T23:38:05.145Z,15.82
2022-10-31T23:41:37.169Z,16.73
2022-10-31T23:45:09.305Z,16.67
2022-10-31T23:48:41.286Z,16.60
2022-10-31T23:52:14.566Z,17.08
2022-10-31T23:55:46.270Z,16.02
2022-10-31T23:59:18.166Z,17.80
